createdAt,value
2023-04-22T00:04:34.423Z,7.86
2023-04-22T00:09:36.622Z,7.77
2023-04-22T00:14:38.976Z,7.70
2023-04-22T00:19:41.767Z,7.61
2023-04-22T00:24:43.920Z,7.55
2023-04-22T00:29:45.753Z,7.52
2023-04-22T00:34:47.394Z,7.46
2023-04-22T00:39:49.098Z,7.32
2023-04-22T00:44:52.144Z,7.26
2023-04-22T00:49:55.001Z,7.19
2023-04-22T00:54:57.233Z,7.13
2023-04-22T00:59:59.294Z,7.07
2023-04-22T01:05:02.128Z,7.02
2023-04-22T01:10:04.713Z,6.94
2023-04-22T01:15:07.587Z,6.87
2023-04-22T01:20:10.566Z,6.82
2023-04-22T01:25:13.093Z,6.79
2023-04-22T01:30:15.733Z,6.74
2023-04-22T01:35:17.520Z,6.67
2023-04-22T01:40:22.792Z,6.61
2023-04-22T01:45:24.755Z,6.59
2023-04-22T01:50:26.553Z,6.58
2023-04-22T01:55:28.472Z,6.56
2023-04-22T02:00:30.293Z,6.54
2023-04-22T02:05:32.663Z,6.55
2023-04-22T02:10:34.513Z,6.55
2023-04-22T02:15:36.332Z,6.55
2023-04-22T02:20:38.367Z,6.57
2023-04-22T02:25:41.032Z,6.58
2023-04-22T02:30:42.975Z,6.53
2023-04-22T02:35:44.916Z,6.46
2023-04-22T02:40:51.021Z,6.40
2023-04-22T02:45:52.767Z,6.33
2023-04-22T02:50:54.615Z,6.31
2023-04-22T02:55:58.352Z,6.26
2023-04-22T03:01:01.173Z,6.12
2023-04-22T03:06:02.961Z,6.10
2023-04-22T03:11:05.037Z,6.00
2023-04-22T03:16:07.527Z,5.94
2023-04-22T03:21:09.321Z,5.85
2023-04-22T03:26:11.276Z,5.85
2023-04-22T03:31:16.621Z,5.70
2023-04-22T03:36:19.512Z,5.51
2023-04-22T03:41:21.421Z,5.46
2023-04-22T03:46:23.832Z,5.41
2023-04-22T03:51:32.835Z,5.40
2023-04-22T03:56:36.877Z,5.44
2023-04-22T04:07:13.833Z,5.58
2023-04-22T04:12:15.795Z,5.79
2023-04-22T04:17:18.865Z,6.04
2023-04-22T04:22:21.380Z,6.52
2023-04-22T04:27:29.855Z,7.40
2023-04-22T04:32:34.445Z,8.40
2023-04-22T04:37:40.467Z,9.75
2023-04-22T04:42:44.377Z,11.38
2023-04-22T04:47:55.464Z,13.08
2023-04-22T04:53:04.092Z,14.43
2023-04-22T04:58:20.832Z,15.94
2023-04-22T05:03:25.752Z,17.52
2023-04-22T05:08:29.427Z,19.23
2023-04-22T05:13:37.663Z,20.59
2023-04-22T05:18:40.814Z,20.94
2023-04-22T05:23:44.125Z,19.40
2023-04-22T05:28:46.102Z,16.92
2023-04-22T05:33:48.584Z,14.59
2023-04-22T05:38:50.805Z,13.32
2023-04-22T05:43:52.612Z,12.41
2023-04-22T05:48:55.893Z,11.78
2023-04-22T05:54:18.071Z,12.16
2023-04-22T05:59:21.825Z,12.68
2023-04-22T06:04:24.789Z,13.12
2023-04-22T06:09:26.874Z,13.46
2023-04-22T06:14:28.646Z,13.45
2023-04-22T06:19:30.551Z,13.51
2023-04-22T06:24:32.680Z,13.70
2023-04-22T06:29:34.646Z,13.93
2023-04-22T06:34:38.704Z,14.07
2023-04-22T06:39:41.366Z,14.31
2023-04-22T06:45:00.664Z,14.60
2023-04-22T06:50:35.522Z,14.78
2023-04-22T06:55:37.395Z,14.89
2023-04-22T07:00:39.394Z,15.17
2023-04-22T07:05:41.355Z,15.52
2023-04-22T07:10:43.761Z,16.01
2023-04-22T07:16:08.716Z,16.85
2023-04-22T07:21:10.491Z,17.47
2023-04-22T07:26:12.575Z,17.75
2023-04-22T07:31:14.398Z,17.96
2023-04-22T07:36:16.301Z,18.25
2023-04-22T07:41:37.080Z,18.55
2023-04-22T07:46:38.885Z,18.81
2023-04-22T07:51:41.202Z,19.10
2023-04-22T07:56:42.945Z,19.26
2023-04-22T08:01:46.673Z,19.70
2023-04-22T08:06:48.372Z,20.04
2023-04-22T08:11:50.114Z,20.36
2023-04-22T08:16:52.618Z,20.80
2023-04-22T08:21:54.335Z,20.66
2023-04-22T08:26:56.740Z,20.45
2023-04-22T08:31:58.429Z,20.79
2023-04-22T08:37:00.184Z,21.16
2023-04-22T08:42:02.287Z,21.55
2023-04-22T08:47:05.064Z,21.91
2023-04-22T08:52:10.706Z,21.89
2023-04-22T08:57:15.192Z,21.82
2023-04-22T09:02:20.696Z,22.28
2023-04-22T09:07:25.213Z,22.20
2023-04-22T09:12:27.606Z,22.51
2023-04-22T09:17:33.898Z,22.89
2023-04-22T09:22:43.249Z,23.28
2023-04-22T09:27:52.460Z,23.57
2023-04-22T09:33:02.408Z,23.66
2023-04-22T09:38:08.252Z,23.65
2023-04-22T09:43:11.556Z,23.99
2023-04-22T09:48:15.657Z,24.19
2023-04-22T09:53:19.874Z,23.81
2023-04-22T09:58:27.916Z,23.54
2023-04-22T10:03:30.050Z,23.89
2023-04-22T10:08:33.513Z,24.27
2023-04-22T10:13:36.472Z,24.46
2023-04-22T10:18:39.957Z,24.51
2023-04-22T10:23:47.910Z,24.72
2023-04-22T10:28:51.087Z,24.94
2023-04-22T10:34:11.330Z,25.06
2023-04-22T10:39:16.716Z,24.85
2023-04-22T10:44:22.118Z,24.88
2023-04-22T10:49:26.058Z,24.87
2023-04-22T10:54:30.591Z,24.94
2023-04-22T10:59:35.746Z,25.24
2023-04-22T11:04:38.798Z,25.31
2023-04-22T11:09:41.680Z,25.01
2023-04-22T11:14:43.846Z,25.08
2023-04-22T11:19:47.237Z,25.10
2023-04-22T11:25:01.472Z,25.16
2023-04-22T11:30:13.022Z,25.19
2023-04-22T11:35:15.941Z,25.11
2023-04-22T11:40:29.872Z,25.32
2023-04-22T11:45:34.867Z,25.46
2023-04-22T11:50:42.285Z,25.53
2023-04-22T11:55:46.839Z,25.68
2023-04-22T12:00:50.880Z,25.54
2023-04-22T12:05:53.708Z,25.41
2023-04-22T12:10:57.735Z,25.39
2023-04-22T12:16:02.087Z,25.16
2023-04-22T12:21:07.069Z,25.12
2023-04-22T12:26:09.157Z,25.37
2023-04-22T12:31:12.811Z,25.26
2023-04-22T12:36:14.665Z,25.72
2023-04-22T12:41:16.595Z,25.48
2023-04-22T12:46:18.426Z,25.53
2023-04-22T12:51:20.166Z,25.72
2023-04-22T12:56:21.974Z,26.06
2023-04-22T13:01:23.796Z,26.22
2023-04-22T13:06:25.535Z,26.52
2023-04-22T13:11:27.466Z,26.00
2023-04-22T13:16:29.308Z,26.03
2023-04-22T13:21:31.953Z,25.63
2023-04-22T13:26:33.717Z,25.37
2023-04-22T13:31:35.654Z,25.10
2023-04-22T13:36:37.507Z,25.15
2023-04-22T13:41:39.218Z,25.05
2023-04-22T13:46:42.073Z,25.54
2023-04-22T13:51:43.768Z,25.77
2023-04-22T13:56:45.785Z,26.69
2023-04-22T14:01:47.509Z,27.49
2023-04-22T14:06:50.476Z,27.65
2023-04-22T14:11:52.328Z,27.07
2023-04-22T14:16:54.433Z,27.24
2023-04-22T14:21:56.265Z,27.64
2023-04-22T14:27:04.109Z,28.22
2023-04-22T14:32:06.033Z,28.64
2023-04-22T14:37:07.767Z,28.78
2023-04-22T14:42:10.628Z,28.61
2023-04-22T14:47:12.356Z,28.57
2023-04-22T14:52:14.134Z,28.75
2023-04-22T14:57:15.841Z,28.36
2023-04-22T15:02:17.715Z,28.16
2023-04-22T15:07:19.634Z,28.53
2023-04-22T15:12:21.411Z,28.59
2023-04-22T15:17:24.143Z,28.38
2023-04-22T15:22:25.915Z,28.24
2023-04-22T15:27:27.642Z,28.05
2023-04-22T15:32:29.379Z,27.82
2023-04-22T15:37:31.058Z,27.35
2023-04-22T15:42:32.733Z,27.40
2023-04-22T15:47:36.423Z,27.68
2023-04-22T15:52:38.841Z,27.70
2023-04-22T15:57:40.736Z,27.65
2023-04-22T16:02:43.789Z,27.57
2023-04-22T16:07:46.407Z,27.94
2023-04-22T16:12:49.347Z,28.63
2023-04-22T16:17:51.327Z,28.92
2023-04-22T16:22:53.186Z,29.02
2023-04-22T16:27:55.224Z,29.19
2023-04-22T16:32:57.031Z,29.55
2023-04-22T16:37:58.836Z,29.85
2023-04-22T16:43:33.899Z,30.10
2023-04-22T16:48:36.019Z,29.87
2023-04-22T16:53:37.831Z,29.42
2023-04-22T16:58:39.575Z,29.18
2023-04-22T17:03:41.863Z,28.72
2023-04-22T17:08:43.882Z,28.19
2023-04-22T17:13:45.707Z,27.05
2023-04-22T17:18:47.436Z,25.91
2023-04-22T17:23:49.963Z,24.41
2023-04-22T17:28:52.060Z,23.28
2023-04-22T17:33:53.797Z,22.24
2023-04-22T17:38:55.527Z,21.32
2023-04-22T17:43:59.008Z,20.50
2023-04-22T17:49:01.272Z,19.76
2023-04-22T17:54:05.208Z,19.07
2023-04-22T17:59:12.444Z,18.48
2023-04-22T18:04:14.494Z,17.94
2023-04-22T18:09:16.442Z,17.43
2023-04-22T18:14:20.859Z,16.96
2023-04-22T18:19:22.768Z,16.51
2023-04-22T18:24:24.748Z,16.10
2023-04-22T18:29:26.453Z,15.70
2023-04-22T18:34:29.153Z,15.30
2023-04-22T18:39:31.184Z,14.87
2023-04-22T18:44:32.861Z,14.50
2023-04-22T18:49:34.584Z,14.14
2023-04-22T18:54:36.298Z,13.82
2023-04-22T18:59:38.199Z,13.52
2023-04-22T19:04:40.391Z,13.24
2023-04-22T19:09:42.434Z,12.98
2023-04-22T19:14:44.320Z,12.76
2023-04-22T19:19:46.590Z,12.52
2023-04-22T19:24:48.348Z,12.19
2023-04-22T19:29:53.422Z,12.01
2023-04-22T19:34:55.396Z,12.25
2023-04-22T19:39:57.651Z,12.39
2023-04-22T19:44:59.559Z,12.42
2023-04-22T19:50:02.694Z,12.42
2023-04-22T19:55:09.329Z,12.19
2023-04-22T20:00:11.840Z,11.93
2023-04-22T20:05:18.519Z,11.63
2023-04-22T20:10:22.716Z,11.42
2023-04-22T20:15:24.710Z,11.30
2023-04-22T20:20:27.612Z,11.19
2023-04-22T20:25:30.991Z,11.08
2023-04-22T20:30:33.337Z,11.00
2023-04-22T20:35:38.240Z,10.97
2023-04-22T20:40:41.144Z,10.93
2023-04-22T20:45:43.295Z,10.84
2023-04-22T20:50:46.147Z,10.78
2023-04-22T20:55:47.859Z,10.72
2023-04-22T21:00:49.660Z,10.69
2023-04-22T21:05:52.392Z,10.67
2023-04-22T21:11:00.298Z,10.56
2023-04-22T21:16:11.755Z,10.34
2023-04-22T21:21:16.156Z,10.09
2023-04-22T21:26:18.743Z,9.94
2023-04-22T21:31:22.006Z,10.22
2023-04-22T21:36:25.027Z,10.44
2023-04-22T21:41:27.623Z,10.24
2023-04-22T21:46:29.713Z,9.81
2023-04-22T21:51:34.375Z,9.61
2023-04-22T21:56:36.414Z,9.51
2023-04-22T22:01:38.173Z,9.54
2023-04-22T22:06:39.928Z,9.57
2023-04-22T22:11:41.719Z,9.57
2023-04-22T22:16:43.895Z,9.58
2023-04-22T22:21:46.295Z,9.56
2023-04-22T22:26:48.060Z,9.53
2023-04-22T22:31:50.002Z,9.55
2023-04-22T22:36:51.759Z,9.57
2023-04-22T22:41:55.417Z,9.54
2023-04-22T22:46:57.203Z,9.46
2023-04-22T22:52:01.544Z,9.51
2023-04-22T22:57:05.691Z,9.49
2023-04-22T23:02:07.535Z,9.45
2023-04-22T23:07:10.401Z,9.38
2023-04-22T23:12:32.132Z,9.35
2023-04-22T23:17:36.227Z,9.42
2023-04-22T23:22:40.686Z,9.47
2023-04-22T23:27:43.303Z,9.38
2023-04-22T23:32:49.756Z,9.33
2023-04-22T23:37:54.720Z,9.41
2023-04-22T23:42:56.992Z,9.48
2023-04-22T23:48:01.195Z,9.51
2023-04-22T23:53:02.966Z,9.61
2023-04-22T23:58:04.923Z,9.67
